createdAt,value
2018-02-25T00:00:57.689Z,44.12
2018-02-25T00:03:26.720Z,44.24
2018-02-25T00:05:55.664Z,44.39
2018-02-25T00:08:24.693Z,44.41
2018-02-25T00:10:53.600Z,44.34
2018-02-25T00:13:22.707Z,44.23
2018-02-25T00:15:52.474Z,43.95
2018-02-25T00:18:21.630Z,41.72
2018-02-25T00:20:50.708Z,40.64
2018-02-25T00:23:19.751Z,40.09
2018-02-25T00:25:48.735Z,40.04
2018-02-25T00:28:17.696Z,40.80
2018-02-25T00:32:49.222Z,42.82
2018-02-25T00:35:18.274Z,43.18
2018-02-25T00:37:47.313Z,43.47
2018-02-25T00:40:16.537Z,43.67
2018-02-25T00:42:45.706Z,43.86
2018-02-25T00:45:14.703Z,43.99
2018-02-25T00:47:43.756Z,44.13
2018-02-25T00:50:12.793Z,44.22
2018-02-25T00:52:41.675Z,44.29
2018-02-25T00:55:10.738Z,43.26
2018-02-25T00:59:12.724Z,40.77
2018-02-25T01:01:41.749Z,40.41
2018-02-25T01:04:10.737Z,40.65
2018-02-25T01:06:39.724Z,41.35
2018-02-25T01:09:08.768Z,42.51
2018-02-25T01:11:37.746Z,43.08
2018-02-25T01:14:06.751Z,43.31
2018-02-25T01:16:35.764Z,43.15
2018-02-25T01:19:04.846Z,42.21
2018-02-25T01:21:33.761Z,40.88
2018-02-25T01:24:02.668Z,39.92
2018-02-25T01:26:31.699Z,40.03
2018-02-25T01:29:01.539Z,40.71
2018-02-25T01:31:30.718Z,42.21
2018-02-25T01:33:59.746Z,42.78
2018-02-25T01:36:28.718Z,43.16
2018-02-25T01:38:57.688Z,43.25
2018-02-25T01:41:26.757Z,41.84
2018-02-25T01:46:19.458Z,40.36
2018-02-25T01:48:48.664Z,39.96
2018-02-25T01:51:17.632Z,41.36
2018-02-25T01:53:46.751Z,42.55
2018-02-25T01:56:15.719Z,43.06
2018-02-25T02:01:27.704Z,43.11
2018-02-25T02:03:56.748Z,41.58
2018-02-25T02:06:25.763Z,40.47
2018-02-25T02:08:54.738Z,40.49
2018-02-25T02:11:23.622Z,40.64
2018-02-25T02:13:52.706Z,41.85
2018-02-25T02:16:21.660Z,42.41
2018-02-25T02:18:50.698Z,42.78
2018-02-25T02:21:19.649Z,43.13
2018-02-25T02:23:48.524Z,42.98
2018-02-25T02:26:17.587Z,41.66
2018-02-25T02:28:46.560Z,40.37
2018-02-25T02:31:15.618Z,39.69
2018-02-25T02:33:44.600Z,39.64
2018-02-25T02:36:13.762Z,41.31
2018-02-25T02:38:42.735Z,42.19
2018-02-25T02:41:11.682Z,42.76
2018-02-25T02:43:40.711Z,42.96
2018-02-25T02:46:09.769Z,42.91
2018-02-25T02:48:38.739Z,41.23
2018-02-25T02:51:07.771Z,40.39
2018-02-25T02:53:36.752Z,39.92
2018-02-25T02:56:05.749Z,39.92
2018-02-25T02:58:34.736Z,41.65
2018-02-25T03:01:03.716Z,42.42
2018-02-25T03:03:32.692Z,42.81
2018-02-25T03:06:02.577Z,43.00
2018-02-25T03:13:23.743Z,41.31
2018-02-25T03:15:52.716Z,40.27
2018-02-25T03:18:21.660Z,39.93
2018-02-25T03:20:50.659Z,39.78
2018-02-25T03:23:19.738Z,41.42
2018-02-25T03:25:48.675Z,42.29
2018-02-25T03:28:17.708Z,42.72
2018-02-25T03:30:46.756Z,43.06
2018-02-25T03:33:15.976Z,43.03
2018-02-25T03:35:44.322Z,41.64
2018-02-25T03:39:01.735Z,40.31
2018-02-25T03:41:30.696Z,39.74
2018-02-25T03:43:59.821Z,40.26
2018-02-25T03:46:28.704Z,41.69
2018-02-25T03:48:57.914Z,42.44
2018-02-25T03:51:26.584Z,42.83
2018-02-25T03:53:55.706Z,44.09
2018-02-25T03:56:24.696Z,42.11
2018-02-25T03:58:53.718Z,41.22
2018-02-25T04:01:22.760Z,40.53
2018-02-25T04:03:51.747Z,40.02
2018-02-25T04:06:20.879Z,41.54
2018-02-25T04:08:50.248Z,42.71
2018-02-25T04:11:19.724Z,43.26
2018-02-25T04:15:04.724Z,43.77
2018-02-25T04:17:33.720Z,43.87
2018-02-25T04:20:02.892Z,44.12
2018-02-25T04:22:31.196Z,44.35
2018-02-25T04:24:59.784Z,44.33
2018-02-25T04:27:29.173Z,44.21
2018-02-25T04:29:58.708Z,43.20
2018-02-25T04:32:27.780Z,41.55
2018-02-25T04:34:56.914Z,40.34
2018-02-25T04:37:25.534Z,39.99
2018-02-25T04:39:54.906Z,39.70
2018-02-25T04:42:23.460Z,39.71
2018-02-25T04:47:37.727Z,42.40
2018-02-25T04:50:07.034Z,42.79
2018-02-25T04:52:36.317Z,42.30
2018-02-25T04:55:05.700Z,40.74
2018-02-25T04:57:34.715Z,39.91
2018-02-25T05:00:03.765Z,39.99
2018-02-25T05:02:32.712Z,40.08
2018-02-25T05:05:02.253Z,41.58
2018-02-25T05:07:31.900Z,42.26
2018-02-25T05:10:00.437Z,42.63
2018-02-25T05:12:29.464Z,42.96
2018-02-25T05:16:00.161Z,43.23
2018-02-25T05:18:29.692Z,43.57
2018-02-25T05:20:58.776Z,43.65
2018-02-25T05:23:27.804Z,43.89
2018-02-25T05:25:56.814Z,43.89
2018-02-25T05:28:25.777Z,42.78
2018-02-25T05:30:54.798Z,41.38
2018-02-25T05:33:23.775Z,40.44
2018-02-25T05:35:53.260Z,39.85
2018-02-25T05:38:22.687Z,39.75
2018-02-25T05:40:52.184Z,40.46
2018-02-25T05:43:21.721Z,41.90
2018-02-25T05:49:23.705Z,43.19
2018-02-25T05:54:37.796Z,41.15
2018-02-25T05:57:06.715Z,40.19
2018-02-25T05:59:35.772Z,39.92
2018-02-25T06:02:05.234Z,40.01
2018-02-25T06:04:34.227Z,41.68
2018-02-25T06:07:03.769Z,42.46
2018-02-25T06:09:32.752Z,42.85
2018-02-25T06:12:01.755Z,43.17
2018-02-25T06:14:30.673Z,43.44
2018-02-25T06:16:59.712Z,43.75
2018-02-25T06:19:28.776Z,43.79
2018-02-25T06:21:57.700Z,44.03
2018-02-25T06:24:27.526Z,44.01
2018-02-25T06:26:56.519Z,43.02
2018-02-25T06:29:25.728Z,41.22
2018-02-25T06:31:55.184Z,40.12
2018-02-25T06:34:23.870Z,39.57
2018-02-25T06:36:52.753Z,39.23
2018-02-25T06:39:21.723Z,39.24
2018-02-25T06:41:52.879Z,40.97
2018-02-25T06:44:21.694Z,41.87
2018-02-25T06:46:50.706Z,42.41
2018-02-25T06:49:19.714Z,42.60
2018-02-25T06:51:48.761Z,42.94
2018-02-25T06:54:17.716Z,42.76
2018-02-25T06:56:46.873Z,42.67
2018-02-25T06:59:15.840Z,42.76
2018-02-25T07:01:44.630Z,42.86
2018-02-25T07:04:13.680Z,43.04
2018-02-25T07:06:42.619Z,43.35
2018-02-25T07:09:11.691Z,43.03
2018-02-25T07:11:40.609Z,42.44
2018-02-25T07:14:09.696Z,40.49
2018-02-25T07:16:39.651Z,39.64
2018-02-25T07:19:08.647Z,39.35
2018-02-25T07:24:14.688Z,39.02
2018-02-25T07:27:33.224Z,40.86
2018-02-25T07:30:02.580Z,41.76
2018-02-25T07:32:31.737Z,42.33
2018-02-25T07:35:02.434Z,42.91
2018-02-25T07:39:47.614Z,43.21
2018-02-25T07:42:16.701Z,43.32
2018-02-25T07:44:45.759Z,42.79
2018-02-25T07:47:14.752Z,43.00
2018-02-25T07:49:43.718Z,38.94
2018-02-25T07:52:12.695Z,36.15
2018-02-25T07:54:41.710Z,35.51
2018-02-25T07:57:10.680Z,34.98
2018-02-25T07:59:39.695Z,34.47
2018-02-25T08:02:08.783Z,34.30
2018-02-25T08:05:46.677Z,34.65
2018-02-25T08:08:16.686Z,34.82
2018-02-25T08:13:15.570Z,35.20
2018-02-25T08:18:22.547Z,37.88
2018-02-25T08:20:51.549Z,38.41
2018-02-25T08:23:20.684Z,38.70
2018-02-25T08:25:49.635Z,39.00
2018-02-25T08:28:18.633Z,38.67
2018-02-25T08:30:47.746Z,39.06
2018-02-25T08:33:16.689Z,37.79
2018-02-25T08:35:45.890Z,36.55
2018-02-25T08:38:14.513Z,36.48
2018-02-25T08:40:43.563Z,37.20
2018-02-25T08:43:12.684Z,37.66
2018-02-25T08:45:41.603Z,37.49
2018-02-25T08:48:10.710Z,36.87
2018-02-25T08:51:31.641Z,36.46
2018-02-25T08:54:00.682Z,36.37
2018-02-25T08:56:29.691Z,36.27
2018-02-25T08:58:58.758Z,35.70
2018-02-25T09:01:27.672Z,35.79
2018-02-25T09:03:56.700Z,35.75
2018-02-25T09:06:25.641Z,35.33
2018-02-25T09:08:54.715Z,36.79
2018-02-25T09:11:23.742Z,38.17
2018-02-25T09:13:52.698Z,38.90
2018-02-25T09:16:21.672Z,39.32
2018-02-25T09:18:50.681Z,39.59
2018-02-25T09:22:47.619Z,39.64
2018-02-25T09:25:16.765Z,39.23
2018-02-25T09:27:45.680Z,37.95
2018-02-25T09:30:14.768Z,37.44
2018-02-25T09:34:49.657Z,37.47
2018-02-25T09:37:18.630Z,37.16
2018-02-25T09:39:47.668Z,36.66
2018-02-25T09:42:16.785Z,35.93
2018-02-25T09:46:35.598Z,35.27
2018-02-25T09:49:05.416Z,35.20
2018-02-25T09:51:34.334Z,34.58
2018-02-25T09:56:47.307Z,34.30
2018-02-25T09:59:16.652Z,35.70
2018-02-25T10:01:45.687Z,37.12
2018-02-25T10:04:14.660Z,37.93
2018-02-25T10:06:43.692Z,38.44
2018-02-25T10:09:12.700Z,38.83
2018-02-25T10:11:41.648Z,39.14
2018-02-25T10:14:10.684Z,39.11
2018-02-25T10:16:39.594Z,38.31
2018-02-25T10:19:08.560Z,36.96
2018-02-25T10:21:37.633Z,36.45
2018-02-25T10:24:06.661Z,36.08
2018-02-25T10:26:35.596Z,36.04
2018-02-25T10:29:04.696Z,36.05
2018-02-25T10:31:33.627Z,36.07
2018-02-25T10:34:02.661Z,35.99
2018-02-25T10:36:31.648Z,35.89
2018-02-25T10:39:00.690Z,35.72
2018-02-25T10:43:16.431Z,35.86
2018-02-25T10:45:45.662Z,35.68
2018-02-25T10:48:14.770Z,35.83
2018-02-25T10:50:43.618Z,35.57
2018-02-25T10:53:12.733Z,35.06
2018-02-25T10:55:42.445Z,35.13
2018-02-25T11:01:02.674Z,35.32
2018-02-25T11:03:31.619Z,36.61
2018-02-25T11:06:00.724Z,37.70
2018-02-25T11:08:29.748Z,38.30
2018-02-25T11:10:58.698Z,37.04
2018-02-25T11:13:27.695Z,36.32
2018-02-25T11:15:56.732Z,36.16
2018-02-25T11:18:25.692Z,35.92
2018-02-25T11:20:54.615Z,35.73
2018-02-25T11:23:23.736Z,35.46
2018-02-25T11:26:29.631Z,35.82
2018-02-25T11:28:58.867Z,36.01
2018-02-25T11:31:28.018Z,36.08
2018-02-25T11:33:56.509Z,36.04
2018-02-25T11:36:25.744Z,36.09
2018-02-25T11:40:02.621Z,35.88
2018-02-25T11:42:31.636Z,35.58
2018-02-25T11:45:00.654Z,35.62
2018-02-25T11:47:29.703Z,35.79
2018-02-25T11:49:58.675Z,35.22
2018-02-25T11:54:14.730Z,37.31
2018-02-25T11:56:44.728Z,38.12
2018-02-25T11:59:13.746Z,37.59
2018-02-25T12:01:42.854Z,36.43
2018-02-25T12:06:25.762Z,36.07
2018-02-25T12:08:54.776Z,36.10
2018-02-25T12:11:23.774Z,35.78
2018-02-25T12:13:52.774Z,35.89
2018-02-25T12:16:21.655Z,35.95
2018-02-25T12:18:50.778Z,35.40
2018-02-25T12:21:19.674Z,35.05
2018-02-25T12:23:48.623Z,35.34
2018-02-25T12:26:17.720Z,35.31
2018-02-25T12:28:46.668Z,35.69
2018-02-25T12:31:15.672Z,35.72
2018-02-25T12:33:44.680Z,35.64
2018-02-25T12:36:14.057Z,35.50
2018-02-25T12:38:43.704Z,35.54
2018-02-25T12:41:12.715Z,35.31
2018-02-25T12:43:41.718Z,35.29
2018-02-25T12:46:10.729Z,34.84
2018-02-25T12:48:40.113Z,36.54
2018-02-25T12:51:09.789Z,37.49
2018-02-25T12:53:38.676Z,38.04
2018-02-25T12:56:07.764Z,38.36
2018-02-25T12:58:36.882Z,38.55
2018-02-25T13:01:37.664Z,38.31
2018-02-25T13:04:06.679Z,38.72
2018-02-25T13:09:09.683Z,36.18
2018-02-25T13:11:38.764Z,35.93
2018-02-25T13:14:07.712Z,35.50
2018-02-25T13:19:15.322Z,35.38
2018-02-25T13:21:44.341Z,35.15
2018-02-25T13:24:13.654Z,35.48
2018-02-25T13:26:42.735Z,35.44
2018-02-25T13:29:11.750Z,34.69
2018-02-25T13:31:40.711Z,35.01
2018-02-25T13:35:44.733Z,35.81
2018-02-25T13:39:29.746Z,37.92
2018-02-25T13:42:00.205Z,38.56
2018-02-25T13:44:29.793Z,39.31
2018-02-25T13:46:58.822Z,38.56
2018-02-25T13:49:28.772Z,38.99
2018-02-25T13:52:09.716Z,38.64
2018-02-25T13:54:39.496Z,38.25
2018-02-25T13:57:08.794Z,37.90
2018-02-25T13:59:37.716Z,38.27
2018-02-25T14:03:18.676Z,38.00
2018-02-25T14:05:47.704Z,37.67
2018-02-25T14:08:16.769Z,37.55
2018-02-25T14:13:02.624Z,39.57
2018-02-25T14:15:31.712Z,40.15
2018-02-25T14:18:40.659Z,38.81
2018-02-25T14:24:45.510Z,36.93
2018-02-25T14:29:34.695Z,37.11
2018-02-25T14:32:04.032Z,36.16
2018-02-25T14:34:32.688Z,35.80
2018-02-25T14:37:01.722Z,36.40
2018-02-25T14:39:30.680Z,36.92
2018-02-25T14:42:00.459Z,37.71
2018-02-25T14:44:29.773Z,38.00
2018-02-25T14:46:58.653Z,38.40
2018-02-25T14:49:27.731Z,37.17
2018-02-25T14:51:56.727Z,36.40
2018-02-25T14:54:26.884Z,36.47
2018-02-25T14:56:55.721Z,36.38
2018-02-25T14:59:29.293Z,36.28
2018-02-25T15:01:58.718Z,36.25
2018-02-25T15:04:28.536Z,36.17
2018-02-25T15:06:58.476Z,36.25
2018-02-25T15:10:17.429Z,36.18
2018-02-25T15:12:46.676Z,36.06
2018-02-25T15:15:15.860Z,35.96
2018-02-25T15:17:45.240Z,36.42
2018-02-25T15:20:14.729Z,36.32
2018-02-25T15:22:44.012Z,36.04
2018-02-25T15:29:31.730Z,38.66
2018-02-25T15:32:00.675Z,38.07
2018-02-25T15:34:29.749Z,38.43
2018-02-25T15:36:58.647Z,36.97
2018-02-25T15:39:27.676Z,36.18
2018-02-25T15:41:56.749Z,36.01
2018-02-25T15:46:20.670Z,35.80
2018-02-25T15:48:49.664Z,35.63
2018-02-25T15:51:18.707Z,35.88
2018-02-25T15:53:47.643Z,35.68
2018-02-25T15:56:16.702Z,36.08
2018-02-25T15:58:45.679Z,35.95
2018-02-25T16:01:14.757Z,35.67
2018-02-25T16:03:43.648Z,35.14
2018-02-25T16:07:52.720Z,35.84
2018-02-25T16:10:22.201Z,36.88
2018-02-25T16:12:51.758Z,37.50
2018-02-25T16:17:05.333Z,36.37
2018-02-25T16:19:34.425Z,36.23
2018-02-25T16:22:03.633Z,36.97
2018-02-25T16:24:32.710Z,37.54
2018-02-25T16:27:01.856Z,37.69
2018-02-25T16:29:30.698Z,39.78
2018-02-25T16:31:59.749Z,39.49
2018-02-25T16:34:29.663Z,39.39
2018-02-25T16:36:58.750Z,39.36
2018-02-25T16:39:27.688Z,38.44
2018-02-25T16:41:56.668Z,37.15
2018-02-25T16:44:25.708Z,36.55
2018-02-25T16:46:54.727Z,36.43
2018-02-25T16:51:01.666Z,36.00
2018-02-25T16:53:30.748Z,35.67
2018-02-25T16:55:59.679Z,35.13
2018-02-25T16:59:02.517Z,35.19
2018-02-25T17:01:31.655Z,34.63
2018-02-25T17:04:00.699Z,38.44
2018-02-25T17:08:34.297Z,37.60
2018-02-25T17:12:55.718Z,36.38
2018-02-25T17:15:24.674Z,35.94
2018-02-25T17:17:53.642Z,35.76
2018-02-25T17:20:23.436Z,35.75
2018-02-25T17:35:50.246Z,36.36
2018-02-25T17:38:19.687Z,35.88
2018-02-25T17:40:48.717Z,35.52
2018-02-25T17:43:17.701Z,35.46
2018-02-25T17:45:46.838Z,35.78
2018-02-25T17:48:15.669Z,37.11
2018-02-25T17:50:44.732Z,37.89
2018-02-25T17:53:14.311Z,38.11
2018-02-25T18:00:46.563Z,34.45
2018-02-25T18:03:15.676Z,34.69
2018-02-25T18:05:44.731Z,34.66
2018-02-25T18:08:14.193Z,34.97
2018-02-25T18:10:43.678Z,36.50
2018-02-25T18:13:13.185Z,36.94
2018-02-25T18:17:53.176Z,37.34
2018-02-25T18:20:22.469Z,36.25
2018-02-25T18:26:54.475Z,35.46
2018-02-25T18:29:23.758Z,36.07
2018-02-25T18:31:55.893Z,36.01
2018-02-25T18:34:24.612Z,36.34
2018-02-25T18:36:53.684Z,37.75
2018-02-25T18:39:22.668Z,38.12
2018-02-25T18:41:51.798Z,38.66
2018-02-25T18:44:21.378Z,37.49
2018-02-25T18:46:50.514Z,36.63
2018-02-25T18:49:19.705Z,36.29
2018-02-25T18:51:48.707Z,36.04
2018-02-25T18:54:18.693Z,35.89
2018-02-25T18:56:47.607Z,35.98
2018-02-25T18:59:44.625Z,36.83
2018-02-25T19:02:14.216Z,37.87
2018-02-25T19:04:43.413Z,38.61
2018-02-25T19:07:12.615Z,38.51
2018-02-25T19:09:41.742Z,37.27
2018-02-25T19:12:10.748Z,36.84
2018-02-25T19:14:39.640Z,36.95
2018-02-25T19:21:04.628Z,36.38
2018-02-25T19:23:33.875Z,36.20
2018-02-25T19:26:02.717Z,36.84
2018-02-25T19:29:40.716Z,38.34
2018-02-25T19:33:31.465Z,38.80
2018-02-25T19:36:05.781Z,37.60
2018-02-25T19:38:40.504Z,37.00
2018-02-25T19:43:00.153Z,36.70
2018-02-25T19:45:29.706Z,36.75
2018-02-25T19:50:24.434Z,36.93
2018-02-25T19:52:53.640Z,36.91
2018-02-25T19:55:22.765Z,36.76
2018-02-25T19:57:51.759Z,36.96
2018-02-25T20:00:20.742Z,36.98
2018-02-25T20:02:49.693Z,37.81
2018-02-25T20:05:18.673Z,38.96
2018-02-25T20:08:08.097Z,39.14
2018-02-25T20:10:41.660Z,38.54
2018-02-25T20:13:10.714Z,37.13
2018-02-25T20:15:39.687Z,36.91
2018-02-25T20:18:08.695Z,36.62
2018-02-25T20:20:37.671Z,36.16
2018-02-25T20:23:06.671Z,36.54
2018-02-25T20:25:36.230Z,36.50
2018-02-25T20:28:05.595Z,36.00
2018-02-25T20:30:34.720Z,36.12
2018-02-25T20:33:03.746Z,36.87
2018-02-25T20:37:24.660Z,38.63
2018-02-25T20:39:53.690Z,39.03
2018-02-25T20:42:24.909Z,39.29
2018-02-25T20:47:42.637Z,39.29
2018-02-25T20:50:11.721Z,39.17
2018-02-25T20:52:40.699Z,37.34
2018-02-25T20:55:09.653Z,36.85
2018-02-25T20:57:38.684Z,36.43
2018-02-25T21:00:08.626Z,36.30
2018-02-25T21:02:37.749Z,36.36
2018-02-25T21:05:06.704Z,36.11
2018-02-25T21:07:35.738Z,35.88
2018-02-25T21:13:40.670Z,35.27
2018-02-25T21:16:10.242Z,36.62
2018-02-25T21:18:39.793Z,37.79
2018-02-25T21:22:38.616Z,37.14
2018-02-25T21:25:07.777Z,36.27
2018-02-25T21:27:36.677Z,35.78
2018-02-25T21:33:05.858Z,36.46
2018-02-25T21:35:35.440Z,36.42
2018-02-25T21:38:04.652Z,36.39
2018-02-25T21:42:16.698Z,37.54
2018-02-25T21:44:45.756Z,38.42
2018-02-25T21:47:14.692Z,38.44
2018-02-25T21:49:43.721Z,38.66
2018-02-25T21:52:12.702Z,38.16
2018-02-25T21:54:47.589Z,37.21
2018-02-25T21:57:22.557Z,36.94
2018-02-25T21:59:57.541Z,36.86
2018-02-25T22:07:11.426Z,36.14
2018-02-25T22:09:40.378Z,35.63
2018-02-25T22:12:09.241Z,37.15
2018-02-25T22:14:38.685Z,38.26
2018-02-25T22:17:07.610Z,38.45
2018-02-25T22:19:36.632Z,37.96
2018-02-25T22:22:06.529Z,36.75
2018-02-25T22:24:35.621Z,36.64
2018-02-25T22:27:04.673Z,36.67
2018-02-25T22:29:33.676Z,36.44
2018-02-25T22:32:02.727Z,36.41
2018-02-25T22:34:31.673Z,36.52
2018-02-25T22:37:00.728Z,36.31
2018-02-25T22:42:44.643Z,37.74
2018-02-25T22:47:52.477Z,38.25
2018-02-25T22:50:21.498Z,38.57
2018-02-25T22:52:50.762Z,37.21
2018-02-25T22:57:22.643Z,36.63
2018-02-25T23:00:57.754Z,36.52
2018-02-25T23:03:53.314Z,36.12
2018-02-25T23:06:22.700Z,35.43
2018-02-25T23:08:51.769Z,35.79
2018-02-25T23:11:20.719Z,35.35
2018-02-25T23:13:49.632Z,34.98
2018-02-25T23:16:18.687Z,35.38
2018-02-25T23:18:47.721Z,36.61
2018-02-25T23:22:50.625Z,37.39
2018-02-25T23:25:19.726Z,36.95
2018-02-25T23:27:48.682Z,37.50
2018-02-25T23:30:17.686Z,36.73
2018-02-25T23:32:46.759Z,35.81
2018-02-25T23:35:15.714Z,35.67
2018-02-25T23:37:44.619Z,35.74
2018-02-25T23:42:59.302Z,35.79
2018-02-25T23:45:28.221Z,36.28
2018-02-25T23:47:57.465Z,35.86
2018-02-25T23:50:26.484Z,35.88
2018-02-25T23:52:55.480Z,35.80
2018-02-25T23:57:47.296Z,37.63
